Página principal
METAR-TAF:

METAR-TAF

Aeroportos :

Kunming, China

latitude: 25-01N, longitude: 102-41E, altura: 1892 m

Observação actual do tempo

O boletim foi feito há 43 minutos, às 23:00 UTC
Vento 8 kt de su-sudoeste
Temperatura 5°C
Humidade 75%
Pressão 1021 hPa
Visibilidade 10 km ou mais
sem nuvens abaixo de 1500 metros e sem cumulonimbus

METAR: ZPPP 182300Z 20004MPS CAVOK 05/01 Q1021 NOSIG

Hora: 07:43 (23:43 UTC)

Previsão

O boletim foi feito há 4 horas e 29 minutos, às 19:14 UTC
Previsão válida de 19 às 00 UTC a 19 às 24 UTC
Vento 12 kt de sudoeste
Visibilidade 10 km ou mais
sem nuvens abaixo de 1500 metros e sem cumulonimbus
Tornando-se
de 19 às 03 UTC a 19 às 04 UTC
Vento 23 kt de sudoeste com rajadas de 33 kt
Tornando-se
de 19 às 11 UTC a 19 às 12 UTC
Vento 12 kt de sudoeste

TAF: ZPPP 181914Z 1900/1924 22006MPS CAVOK TX21/1908Z TN07/1923Z BECMG 1903/1904 22012G17MPS BECMG 1911/1912 22006MPS

Observações e previsões do tempo de mais de 4000 aeroportos (mensagens METAR e TAF).

As estações disponíveis são os pontos amarelos e vermelhos sobre o mapa.

Mova o rato sobre o mapa para ver o nome da estação.

Depois clique no ponto para visualizar as observações e previsões meteorológicas.

Para alterar o mapa : clique nos botões verdes com uma cruz preta para aumentar o zoom; no botão verde com uma pitada de zoom; ou nas setas verdes para mapas adjacentes.


METAR-TAF: